sensor_id;sensor_type;location;lat;lon;timestamp;P1;durP1;ratioP1;P2;durP2;ratioP2
13785;SDS011;47474;48.824;9.384;2024-03-25T00:02:18;2.67;;;1.70;;
13785;SDS011;47474;48.824;9.384;2024-03-25T00:04:45;2.87;;;1.40;;
13785;SDS011;47474;48.824;9.384;2024-03-25T00:07:10;4.00;;;1.40;;
13785;SDS011;47474;48.824;9.384;2024-03-25T00:09:37;2.90;;;1.53;;
13785;SDS011;47474;48.824;9.384;2024-03-25T00:12:02;1.90;;;1.70;;
13785;SDS011;47474;48.824;9.384;2024-03-25T00:14:29;3.03;;;1.67;;
13785;SDS011;47474;48.824;9.384;2024-03-25T00:16:55;2.73;;;1.80;;
13785;SDS011;47474;48.824;9.384;2024-03-25T00:19:23;2.90;;;1.50;;
13785;SDS011;47474;48.824;9.384;2024-03-25T00:21:48;3.43;;;1.70;;
13785;SDS011;47474;48.824;9.384;2024-03-25T00:24:15;2.77;;;1.80;;
13785;SDS011;47474;48.824;9.384;2024-03-25T00:26:40;3.30;;;1.80;;
13785;SDS011;47474;48.824;9.384;2024-03-25T00:29:07;1.40;;;1.30;;
13785;SDS011;47474;48.824;9.384;2024-03-25T00:31:33;2.37;;;1.20;;
13785;SDS011;47474;48.824;9.384;2024-03-25T00:33:59;3.33;;;1.60;;
13785;SDS011;47474;48.824;9.384;2024-03-25T00:36:26;4.00;;;2.03;;
13785;SDS011;47474;48.824;9.384;2024-03-25T00:38:52;2.77;;;2.17;;
13785;SDS011;47474;48.824;9.384;2024-03-25T00:41:20;2.37;;;1.80;;
13785;SDS011;47474;48.824;9.384;2024-03-25T00:43:46;1.93;;;1.53;;
13785;SDS011;47474;48.824;9.384;2024-03-25T00:46:12;2.97;;;1.70;;
13785;SDS011;47474;48.824;9.384;2024-03-25T00:48:38;3.57;;;2.03;;
13785;SDS011;47474;48.824;9.384;2024-03-25T00:51:04;1.67;;;1.50;;
13785;SDS011;47474;48.824;9.384;2024-03-25T00:53:32;2.20;;;1.73;;
13785;SDS011;47474;48.824;9.384;2024-03-25T00:55:57;2.60;;;1.50;;
13785;SDS011;47474;48.824;9.384;2024-03-25T00:58:24;2.53;;;1.80;;
13785;SDS011;47474;48.824;9.384;2024-03-25T01:00:50;1.63;;;1.50;;
13785;SDS011;47474;48.824;9.384;2024-03-25T01:03:17;2.17;;;1.50;;
13785;SDS011;47474;48.824;9.384;2024-03-25T01:05:42;5.07;;;1.90;;
13785;SDS011;47474;48.824;9.384;2024-03-25T01:08:09;3.50;;;2.13;;
13785;SDS011;47474;48.824;9.384;2024-03-25T01:10:38;4.50;;;1.90;;
13785;SDS011;47474;48.824;9.384;2024-03-25T01:13:04;2.93;;;1.90;;
13785;SDS011;47474;48.824;9.384;2024-03-25T01:15:30;2.37;;;1.60;;
13785;SDS011;47474;48.824;9.384;2024-03-25T01:17:57;2.73;;;1.83;;
13785;SDS011;47474;48.824;9.384;2024-03-25T01:20:22;1.43;;;1.33;;
13785;SDS011;47474;48.824;9.384;2024-03-25T01:22:49;2.60;;;1.70;;
13785;SDS011;47474;48.824;9.384;2024-03-25T01:25:14;2.33;;;1.57;;
13785;SDS011;47474;48.824;9.384;2024-03-25T01:27:42;3.00;;;1.50;;
13785;SDS011;47474;48.824;9.384;2024-03-25T01:30:08;1.97;;;1.80;;
13785;SDS011;47474;48.824;9.384;2024-03-25T01:32:35;2.73;;;1.70;;
13785;SDS011;47474;48.824;9.384;2024-03-25T01:35:00;4.10;;;1.73;;
13785;SDS011;47474;48.824;9.384;2024-03-25T01:37:27;1.60;;;1.50;;
13785;SDS011;47474;48.824;9.384;2024-03-25T01:39:52;3.90;;;1.80;;
13785;SDS011;47474;48.824;9.384;2024-03-25T01:42:19;1.70;;;1.60;;
13785;SDS011;47474;48.824;9.384;2024-03-25T01:44:46;2.10;;;1.90;;
13785;SDS011;47474;48.824;9.384;2024-03-25T01:47:13;3.13;;;1.67;;
13785;SDS011;47474;48.824;9.384;2024-03-25T01:49:39;3.10;;;1.60;;
13785;SDS011;47474;48.824;9.384;2024-03-25T01:52:05;2.77;;;1.77;;
13785;SDS011;47474;48.824;9.384;2024-03-25T01:54:31;2.67;;;1.77;;
13785;SDS011;47474;48.824;9.384;2024-03-25T01:56:58;4.20;;;1.80;;
13785;SDS011;47474;48.824;9.384;2024-03-25T01:59:23;1.73;;;1.60;;
13785;SDS011;47474;48.824;9.384;2024-03-25T02:01:52;2.93;;;1.60;;
13785;SDS011;47474;48.824;9.384;2024-03-25T02:04:18;6.00;;;2.17;;
13785;SDS011;47474;48.824;9.384;2024-03-25T02:06:45;3.83;;;2.07;;
13785;SDS011;47474;48.824;9.384;2024-03-25T02:09:10;3.37;;;1.87;;
13785;SDS011;47474;48.824;9.384;2024-03-25T02:11:39;4.50;;;1.80;;
13785;SDS011;47474;48.824;9.384;2024-03-25T02:14:04;4.03;;;1.90;;
13785;SDS011;47474;48.824;9.384;2024-03-25T02:16:31;1.83;;;1.70;;
13785;SDS011;47474;48.824;9.384;2024-03-25T02:18:58;3.40;;;1.80;;
13785;SDS011;47474;48.824;9.384;2024-03-25T02:21:24;1.70;;;1.60;;
13785;SDS011;47474;48.824;9.384;2024-03-25T02:23:50;5.03;;;1.90;;
13785;SDS011;47474;48.824;9.384;2024-03-25T02:26:20;2.27;;;1.70;;
13785;SDS011;47474;48.824;9.384;2024-03-25T02:28:46;3.43;;;1.90;;
13785;SDS011;47474;48.824;9.384;2024-03-25T02:31:12;5.30;;;2.40;;
13785;SDS011;47474;48.824;9.384;2024-03-25T02:33:38;2.13;;;1.67;;
13785;SDS011;47474;48.824;9.384;2024-03-25T02:36:04;3.70;;;1.97;;
13785;SDS011;47474;48.824;9.384;2024-03-25T02:38:30;3.63;;;2.10;;
13785;SDS011;47474;48.824;9.384;2024-03-25T02:40:57;3.10;;;1.70;;
13785;SDS011;47474;48.824;9.384;2024-03-25T02:43:24;2.30;;;1.70;;
13785;SDS011;47474;48.824;9.384;2024-03-25T02:45:50;2.00;;;1.77;;
13785;SDS011;47474;48.824;9.384;2024-03-25T02:48:16;2.37;;;1.70;;
13785;SDS011;47474;48.824;9.384;2024-03-25T02:50:42;5.07;;;2.10;;
13785;SDS011;47474;48.824;9.384;2024-03-25T02:53:08;3.37;;;1.90;;
13785;SDS011;47474;48.824;9.384;2024-03-25T02:55:34;3.67;;;2.00;;
13785;SDS011;47474;48.824;9.384;2024-03-25T02:58:00;4.27;;;1.93;;
13785;SDS011;47474;48.824;9.384;2024-03-25T03:00:27;3.53;;;2.17;;
13785;SDS011;47474;48.824;9.384;2024-03-25T03:02:53;2.80;;;1.70;;
13785;SDS011;47474;48.824;9.384;2024-03-25T03:05:19;2.33;;;1.83;;
13785;SDS011;47474;48.824;9.384;2024-03-25T03:07:45;2.10;;;1.87;;
13785;SDS011;47474;48.824;9.384;2024-03-25T03:10:11;3.37;;;1.90;;
13785;SDS011;47474;48.824;9.384;2024-03-25T03:12:37;3.53;;;1.87;;
13785;SDS011;47474;48.824;9.384;2024-03-25T03:15:04;4.60;;;2.27;;
13785;SDS011;47474;48.824;9.384;2024-03-25T03:17:31;5.07;;;2.00;;
13785;SDS011;47474;48.824;9.384;2024-03-25T03:19:57;3.43;;;2.20;;
13785;SDS011;47474;48.824;9.384;2024-03-25T03:22:23;5.93;;;1.70;;
13785;SDS011;47474;48.824;9.384;2024-03-25T03:24:49;4.13;;;2.10;;
13785;SDS011;47474;48.824;9.384;2024-03-25T03:27:15;2.37;;;2.00;;
13785;SDS011;47474;48.824;9.384;2024-03-25T03:29:41;2.67;;;2.27;;
13785;SDS011;47474;48.824;9.384;2024-03-25T03:32:07;4.47;;;2.10;;
13785;SDS011;47474;48.824;9.384;2024-03-25T03:34:34;2.23;;;1.60;;
13785;SDS011;47474;48.824;9.384;2024-03-25T03:37:00;3.57;;;1.97;;
13785;SDS011;47474;48.824;9.384;2024-03-25T03:39:26;2.07;;;1.70;;
13785;SDS011;47474;48.824;9.384;2024-03-25T03:41:52;3.30;;;2.20;;
13785;SDS011;47474;48.824;9.384;2024-03-25T03:44:18;4.47;;;1.93;;
13785;SDS011;47474;48.824;9.384;2024-03-25T03:46:44;3.37;;;2.07;;
13785;SDS011;47474;48.824;9.384;2024-03-25T03:49:10;5.37;;;1.90;;
13785;SDS011;47474;48.824;9.384;2024-03-25T03:51:37;2.67;;;2.17;;
13785;SDS011;47474;48.824;9.384;2024-03-25T03:54:04;3.83;;;1.97;;
13785;SDS011;47474;48.824;9.384;2024-03-25T03:56:29;3.53;;;2.17;;
13785;SDS011;47474;48.824;9.384;2024-03-25T03:58:56;3.50;;;2.10;;
13785;SDS011;47474;48.824;9.384;2024-03-25T04:01:21;5.10;;;2.20;;
13785;SDS011;47474;48.824;9.384;2024-03-25T04:03:47;4.17;;;1.90;;
13785;SDS011;47474;48.824;9.384;2024-03-25T04:06:13;2.93;;;2.00;;
13785;SDS011;47474;48.824;9.384;2024-03-25T04:08:41;4.13;;;2.30;;
13785;SDS011;47474;48.824;9.384;2024-03-25T04:11:06;4.13;;;2.30;;
13785;SDS011;47474;48.824;9.384;2024-03-25T04:13:33;3.03;;;2.00;;
13785;SDS011;47474;48.824;9.384;2024-03-25T04:16:01;2.27;;;2.07;;
13785;SDS011;47474;48.824;9.384;2024-03-25T04:18:29;2.40;;;2.20;;
13785;SDS011;47474;48.824;9.384;2024-03-25T04:20:54;3.43;;;2.20;;
13785;SDS011;47474;48.824;9.384;2024-03-25T04:23:21;3.43;;;2.10;;
13785;SDS011;47474;48.824;9.384;2024-03-25T04:25:48;3.93;;;2.10;;
13785;SDS011;47474;48.824;9.384;2024-03-25T04:28:14;3.93;;;2.03;;
13785;SDS011;47474;48.824;9.384;2024-03-25T04:30:40;3.90;;;1.93;;
13785;SDS011;47474;48.824;9.384;2024-03-25T04:33:06;3.03;;;2.30;;
13785;SDS011;47474;48.824;9.384;2024-03-25T04:35:32;3.90;;;2.27;;
13785;SDS011;47474;48.824;9.384;2024-03-25T04:37:58;6.13;;;2.37;;
13785;SDS011;47474;48.824;9.384;2024-03-25T04:40:24;3.33;;;2.10;;
13785;SDS011;47474;48.824;9.384;2024-03-25T04:42:50;3.60;;;2.00;;
13785;SDS011;47474;48.824;9.384;2024-03-25T04:45:16;2.67;;;2.10;;
13785;SDS011;47474;48.824;9.384;2024-03-25T04:47:41;2.47;;;2.07;;
13785;SDS011;47474;48.824;9.384;2024-03-25T04:50:07;4.93;;;2.47;;
13785;SDS011;47474;48.824;9.384;2024-03-25T04:52:34;4.20;;;2.30;;
13785;SDS011;47474;48.824;9.384;2024-03-25T04:54:59;4.00;;;2.27;;
13785;SDS011;47474;48.824;9.384;2024-03-25T04:57:25;3.80;;;2.30;;
13785;SDS011;47474;48.824;9.384;2024-03-25T04:59:52;4.30;;;2.37;;
13785;SDS011;47474;48.824;9.384;2024-03-25T05:02:17;2.57;;;2.37;;
13785;SDS011;47474;48.824;9.384;2024-03-25T05:04:43;2.53;;;2.17;;
13785;SDS011;47474;48.824;9.384;2024-03-25T05:07:08;2.40;;;2.00;;
13785;SDS011;47474;48.824;9.384;2024-03-25T05:09:34;4.13;;;2.30;;
13785;SDS011;47474;48.824;9.384;2024-03-25T05:12:00;9.83;;;4.97;;
13785;SDS011;47474;48.824;9.384;2024-03-25T05:14:25;4.37;;;3.40;;
13785;SDS011;47474;48.824;9.384;2024-03-25T05:16:52;4.27;;;2.47;;
13785;SDS011;47474;48.824;9.384;2024-03-25T05:19:17;3.93;;;2.83;;
13785;SDS011;47474;48.824;9.384;2024-03-25T05:21:43;3.33;;;2.83;;
13785;SDS011;47474;48.824;9.384;2024-03-25T05:24:09;3.83;;;2.73;;
13785;SDS011;47474;48.824;9.384;2024-03-25T05:26:34;4.40;;;2.43;;
13785;SDS011;47474;48.824;9.384;2024-03-25T05:29:00;3.53;;;2.37;;
13785;SDS011;47474;48.824;9.384;2024-03-25T05:31:25;4.30;;;2.63;;
13785;SDS011;47474;48.824;9.384;2024-03-25T05:33:52;2.90;;;2.60;;
13785;SDS011;47474;48.824;9.384;2024-03-25T05:36:18;2.63;;;2.43;;
13785;SDS011;47474;48.824;9.384;2024-03-25T05:38:43;3.03;;;2.10;;
13785;SDS011;47474;48.824;9.384;2024-03-25T05:41:09;2.80;;;2.23;;
13785;SDS011;47474;48.824;9.384;2024-03-25T05:43:35;2.27;;;1.97;;
13785;SDS011;47474;48.824;9.384;2024-03-25T05:46:01;4.23;;;2.30;;
13785;SDS011;47474;48.824;9.384;2024-03-25T05:48:26;5.37;;;2.83;;
13785;SDS011;47474;48.824;9.384;2024-03-25T05:51:00;3.30;;;2.40;;
13785;SDS011;47474;48.824;9.384;2024-03-25T05:53:26;4.37;;;2.10;;
13785;SDS011;47474;48.824;9.384;2024-03-25T05:55:52;5.10;;;2.10;;
13785;SDS011;47474;48.824;9.384;2024-03-25T05:58:17;2.90;;;2.17;;
13785;SDS011;47474;48.824;9.384;2024-03-25T06:00:43;3.67;;;2.60;;
13785;SDS011;47474;48.824;9.384;2024-03-25T06:03:08;7.57;;;2.70;;
13785;SDS011;47474;48.824;9.384;2024-03-25T06:05:34;5.13;;;2.30;;
13785;SDS011;47474;48.824;9.384;2024-03-25T06:08:01;4.50;;;2.67;;
13785;SDS011;47474;48.824;9.384;2024-03-25T06:10:26;5.53;;;2.60;;
13785;SDS011;47474;48.824;9.384;2024-03-25T06:12:52;3.30;;;2.73;;
13785;SDS011;47474;48.824;9.384;2024-03-25T06:15:17;3.70;;;2.87;;
13785;SDS011;47474;48.824;9.384;2024-03-25T06:17:43;6.03;;;3.07;;
13785;SDS011;47474;48.824;9.384;2024-03-25T06:20:09;3.17;;;2.40;;
13785;SDS011;47474;48.824;9.384;2024-03-25T06:22:35;6.97;;;3.13;;
13785;SDS011;47474;48.824;9.384;2024-03-25T06:25:02;5.37;;;2.50;;
13785;SDS011;47474;48.824;9.384;2024-03-25T06:27:28;5.07;;;2.70;;
13785;SDS011;47474;48.824;9.384;2024-03-25T06:29:54;4.90;;;2.60;;
13785;SDS011;47474;48.824;9.384;2024-03-25T06:32:20;4.47;;;3.20;;
13785;SDS011;47474;48.824;9.384;2024-03-25T06:35:04;4.87;;;2.60;;
13785;SDS011;47474;48.824;9.384;2024-03-25T06:37:29;4.07;;;2.90;;
13785;SDS011;47474;48.824;9.384;2024-03-25T06:39:55;4.67;;;2.50;;
13785;SDS011;47474;48.824;9.384;2024-03-25T06:42:22;6.57;;;2.90;;
13785;SDS011;47474;48.824;9.384;2024-03-25T06:44:47;6.27;;;3.43;;
13785;SDS011;47474;48.824;9.384;2024-03-25T06:47:13;3.93;;;3.13;;
13785;SDS011;47474;48.824;9.384;2024-03-25T06:49:38;3.07;;;2.60;;
13785;SDS011;47474;48.824;9.384;2024-03-25T06:52:04;4.67;;;2.73;;
13785;SDS011;47474;48.824;9.384;2024-03-25T06:54:29;5.13;;;2.33;;
13785;SDS011;47474;48.824;9.384;2024-03-25T06:56:55;5.70;;;2.50;;
13785;SDS011;47474;48.824;9.384;2024-03-25T06:59:22;2.43;;;2.23;;
13785;SDS011;47474;48.824;9.384;2024-03-25T07:01:47;3.13;;;2.50;;
13785;SDS011;47474;48.824;9.384;2024-03-25T07:04:13;4.20;;;2.60;;
13785;SDS011;47474;48.824;9.384;2024-03-25T07:06:39;2.70;;;2.00;;
13785;SDS011;47474;48.824;9.384;2024-03-25T07:09:04;3.73;;;2.40;;
13785;SDS011;47474;48.824;9.384;2024-03-25T07:11:30;4.63;;;2.30;;
13785;SDS011;47474;48.824;9.384;2024-03-25T07:13:55;2.83;;;2.20;;
13785;SDS011;47474;48.824;9.384;2024-03-25T07:16:22;4.50;;;2.57;;
13785;SDS011;47474;48.824;9.384;2024-03-25T07:18:48;3.63;;;2.87;;
13785;SDS011;47474;48.824;9.384;2024-03-25T07:21:13;4.50;;;2.27;;
13785;SDS011;47474;48.824;9.384;2024-03-25T07:23:39;3.90;;;2.40;;
13785;SDS011;47474;48.824;9.384;2024-03-25T07:26:04;3.60;;;2.77;;
13785;SDS011;47474;48.824;9.384;2024-03-25T07:28:30;2.73;;;2.40;;
13785;SDS011;47474;48.824;9.384;2024-03-25T07:30:55;2.97;;;2.57;;
13785;SDS011;47474;48.824;9.384;2024-03-25T07:33:22;2.43;;;1.83;;
13785;SDS011;47474;48.824;9.384;2024-03-25T07:35:48;2.77;;;2.40;;
13785;SDS011;47474;48.824;9.384;2024-03-25T07:38:13;5.77;;;2.40;;
13785;SDS011;47474;48.824;9.384;2024-03-25T07:40:39;2.83;;;2.43;;
13785;SDS011;47474;48.824;9.384;2024-03-25T07:43:04;6.30;;;2.83;;
13785;SDS011;47474;48.824;9.384;2024-03-25T07:45:30;4.97;;;2.63;;
13785;SDS011;47474;48.824;9.384;2024-03-25T07:47:55;6.17;;;2.80;;
13785;SDS011;47474;48.824;9.384;2024-03-25T07:50:22;6.50;;;2.97;;
13785;SDS011;47474;48.824;9.384;2024-03-25T07:52:48;4.33;;;3.23;;
13785;SDS011;47474;48.824;9.384;2024-03-25T07:55:13;5.63;;;2.90;;
13785;SDS011;47474;48.824;9.384;2024-03-25T07:57:39;3.33;;;2.77;;
13785;SDS011;47474;48.824;9.384;2024-03-25T08:00:05;11.13;;;3.33;;
13785;SDS011;47474;48.824;9.384;2024-03-25T08:02:31;4.07;;;2.70;;
13785;SDS011;47474;48.824;9.384;2024-03-25T08:04:57;4.23;;;3.13;;
13785;SDS011;47474;48.824;9.384;2024-03-25T08:07:24;4.77;;;3.10;;
13785;SDS011;47474;48.824;9.384;2024-03-25T08:09:49;4.57;;;3.37;;
13785;SDS011;47474;48.824;9.384;2024-03-25T08:12:15;6.80;;;2.93;;
13785;SDS011;47474;48.824;9.384;2024-03-25T08:14:40;2.93;;;2.73;;
13785;SDS011;47474;48.824;9.384;2024-03-25T08:17:06;3.33;;;2.57;;
13785;SDS011;47474;48.824;9.384;2024-03-25T08:19:31;4.07;;;2.40;;
13785;SDS011;47474;48.824;9.384;2024-03-25T08:21:57;3.97;;;2.40;;
13785;SDS011;47474;48.824;9.384;2024-03-25T08:24:24;5.80;;;2.43;;
13785;SDS011;47474;48.824;9.384;2024-03-25T08:26:49;3.30;;;2.13;;
13785;SDS011;47474;48.824;9.384;2024-03-25T08:29:15;4.93;;;2.30;;
13785;SDS011;47474;48.824;9.384;2024-03-25T08:31:40;3.87;;;2.70;;
13785;SDS011;47474;48.824;9.384;2024-03-25T08:34:06;3.77;;;2.70;;
13785;SDS011;47474;48.824;9.384;2024-03-25T08:36:31;5.93;;;2.63;;
13785;SDS011;47474;48.824;9.384;2024-03-25T08:38:57;4.20;;;2.03;;
13785;SDS011;47474;48.824;9.384;2024-03-25T08:41:24;5.23;;;1.40;;
13785;SDS011;47474;48.824;9.384;2024-03-25T08:43:49;4.63;;;1.83;;
13785;SDS011;47474;48.824;9.384;2024-03-25T08:46:15;2.87;;;1.57;;
13785;SDS011;47474;48.824;9.384;2024-03-25T08:48:40;3.40;;;1.60;;
13785;SDS011;47474;48.824;9.384;2024-03-25T08:51:06;2.67;;;1.97;;
13785;SDS011;47474;48.824;9.384;2024-03-25T08:53:32;2.27;;;1.73;;
13785;SDS011;47474;48.824;9.384;2024-03-25T08:55:57;2.17;;;1.87;;
13785;SDS011;47474;48.824;9.384;2024-03-25T08:58:24;3.60;;;2.27;;
13785;SDS011;47474;48.824;9.384;2024-03-25T09:00:49;2.00;;;1.63;;
13785;SDS011;47474;48.824;9.384;2024-03-25T09:03:15;1.63;;;1.53;;
13785;SDS011;47474;48.824;9.384;2024-03-25T09:05:41;2.67;;;1.63;;
13785;SDS011;47474;48.824;9.384;2024-03-25T09:08:06;1.60;;;1.50;;
13785;SDS011;47474;48.824;9.384;2024-03-25T09:10:32;3.40;;;1.50;;
13785;SDS011;47474;48.824;9.384;2024-03-25T09:13:16;3.73;;;1.93;;
13785;SDS011;47474;48.824;9.384;2024-03-25T09:15:43;2.90;;;1.63;;
13785;SDS011;47474;48.824;9.384;2024-03-25T09:18:08;2.17;;;1.57;;
13785;SDS011;47474;48.824;9.384;2024-03-25T09:20:34;2.40;;;1.47;;
13785;SDS011;47474;48.824;9.384;2024-03-25T09:22:59;3.37;;;1.67;;
13785;SDS011;47474;48.824;9.384;2024-03-25T09:25:25;2.27;;;1.50;;
13785;SDS011;47474;48.824;9.384;2024-03-25T09:27:51;1.73;;;1.23;;
13785;SDS011;47474;48.824;9.384;2024-03-25T09:30:16;2.23;;;1.67;;
13785;SDS011;47474;48.824;9.384;2024-03-25T09:32:44;2.60;;;1.67;;
13785;SDS011;47474;48.824;9.384;2024-03-25T09:35:10;3.90;;;1.43;;
13785;SDS011;47474;48.824;9.384;2024-03-25T09:37:36;3.40;;;1.50;;
13785;SDS011;47474;48.824;9.384;2024-03-25T09:40:02;4.30;;;1.70;;
13785;SDS011;47474;48.824;9.384;2024-03-25T09:42:28;2.93;;;1.50;;
13785;SDS011;47474;48.824;9.384;2024-03-25T09:44:58;2.73;;;1.40;;
13785;SDS011;47474;48.824;9.384;2024-03-25T09:47:24;3.60;;;1.63;;
13785;SDS011;47474;48.824;9.384;2024-03-25T09:49:51;4.00;;;1.50;;
13785;SDS011;47474;48.824;9.384;2024-03-25T09:52:17;5.23;;;1.10;;
13785;SDS011;47474;48.824;9.384;2024-03-25T09:54:44;3.77;;;1.40;;
13785;SDS011;47474;48.824;9.384;2024-03-25T09:57:09;2.70;;;1.50;;
13785;SDS011;47474;48.824;9.384;2024-03-25T09:59:35;2.87;;;1.50;;
13785;SDS011;47474;48.824;9.384;2024-03-25T10:02:01;2.67;;;1.43;;
13785;SDS011;47474;48.824;9.384;2024-03-25T10:04:27;3.20;;;1.77;;
13785;SDS011;47474;48.824;9.384;2024-03-25T10:06:54;1.50;;;1.40;;
13785;SDS011;47474;48.824;9.384;2024-03-25T10:09:19;2.33;;;1.43;;
13785;SDS011;47474;48.824;9.384;2024-03-25T10:11:46;2.13;;;1.30;;
13785;SDS011;47474;48.824;9.384;2024-03-25T10:14:12;3.03;;;1.87;;
13785;SDS011;47474;48.824;9.384;2024-03-25T10:16:38;3.33;;;1.80;;
13785;SDS011;47474;48.824;9.384;2024-03-25T10:19:04;3.73;;;1.60;;
13785;SDS011;47474;48.824;9.384;2024-03-25T10:21:29;2.63;;;1.53;;
13785;SDS011;47474;48.824;9.384;2024-03-25T10:23:56;1.63;;;1.50;;
13785;SDS011;47474;48.824;9.384;2024-03-25T10:26:28;1.63;;;1.40;;
13785;SDS011;47474;48.824;9.384;2024-03-25T10:28:59;1.63;;;1.40;;
13785;SDS011;47474;48.824;9.384;2024-03-25T10:31:25;1.63;;;1.30;;
13785;SDS011;47474;48.824;9.384;2024-03-25T10:33:51;3.67;;;1.65;;
13785;SDS011;47474;48.824;9.384;2024-03-25T10:36:17;1.48;;;1.20;;
13785;SDS011;47474;48.824;9.384;2024-03-25T10:38:43;1.35;;;1.15;;
13785;SDS011;47474;48.824;9.384;2024-03-25T10:41:10;2.20;;;1.30;;
13785;SDS011;47474;48.824;9.384;2024-03-25T10:43:38;1.55;;;1.35;;
13785;SDS011;47474;48.824;9.384;2024-03-25T10:46:04;2.67;;;1.08;;
13785;SDS011;47474;48.824;9.384;2024-03-25T10:48:31;3.50;;;1.30;;
13785;SDS011;47474;48.824;9.384;2024-03-25T10:50:59;1.77;;;1.30;;
13785;SDS011;47474;48.824;9.384;2024-03-25T10:53:27;2.35;;;1.63;;
13785;SDS011;47474;48.824;9.384;2024-03-25T10:55:53;2.38;;;1.38;;
13785;SDS011;47474;48.824;9.384;2024-03-25T10:58:21;1.52;;;1.30;;
13785;SDS011;47474;48.824;9.384;2024-03-25T11:00:47;2.25;;;1.45;;
13785;SDS011;47474;48.824;9.384;2024-03-25T11:03:13;2.15;;;1.60;;
13785;SDS011;47474;48.824;9.384;2024-03-25T11:05:39;3.33;;;1.75;;
13785;SDS011;47474;48.824;9.384;2024-03-25T11:08:11;2.90;;;1.60;;
13785;SDS011;47474;48.824;9.384;2024-03-25T11:10:39;3.13;;;1.55;;
13785;SDS011;47474;48.824;9.384;2024-03-25T11:13:09;2.53;;;1.58;;
13785;SDS011;47474;48.824;9.384;2024-03-25T11:15:37;2.28;;;1.70;;
13785;SDS011;47474;48.824;9.384;2024-03-25T11:18:03;2.55;;;1.50;;
13785;SDS011;47474;48.824;9.384;2024-03-25T11:20:29;2.55;;;1.45;;
13785;SDS011;47474;48.824;9.384;2024-03-25T11:22:54;4.85;;;1.67;;
13785;SDS011;47474;48.824;9.384;2024-03-25T11:25:20;2.42;;;1.60;;
13785;SDS011;47474;48.824;9.384;2024-03-25T11:27:46;1.85;;;1.30;;
13785;SDS011;47474;48.824;9.384;2024-03-25T11:30:12;1.98;;;1.52;;
13785;SDS011;47474;48.824;9.384;2024-03-25T11:32:44;2.28;;;1.75;;
13785;SDS011;47474;48.824;9.384;2024-03-25T11:35:10;3.88;;;1.40;;
13785;SDS011;47474;48.824;9.384;2024-03-25T11:37:39;3.30;;;1.38;;
13785;SDS011;47474;48.824;9.384;2024-03-25T11:40:05;3.45;;;1.52;;
13785;SDS011;47474;48.824;9.384;2024-03-25T11:42:32;2.13;;;1.48;;
13785;SDS011;47474;48.824;9.384;2024-03-25T11:44:57;1.92;;;1.20;;
13785;SDS011;47474;48.824;9.384;2024-03-25T11:47:24;3.47;;;1.42;;
13785;SDS011;47474;48.824;9.384;2024-03-25T11:49:51;2.47;;;1.38;;
13785;SDS011;47474;48.824;9.384;2024-03-25T11:52:17;1.98;;;1.40;;
13785;SDS011;47474;48.824;9.384;2024-03-25T11:54:43;1.45;;;1.35;;
13785;SDS011;47474;48.824;9.384;2024-03-25T11:57:08;2.67;;;1.63;;
13785;SDS011;47474;48.824;9.384;2024-03-25T11:59:34;3.22;;;1.20;;
13785;SDS011;47474;48.824;9.384;2024-03-25T12:01:59;2.50;;;1.40;;
13785;SDS011;47474;48.824;9.384;2024-03-25T12:04:25;2.58;;;1.35;;
13785;SDS011;47474;48.824;9.384;2024-03-25T12:06:55;3.72;;;1.73;;
13785;SDS011;47474;48.824;9.384;2024-03-25T12:09:20;2.47;;;1.40;;
13785;SDS011;47474;48.824;9.384;2024-03-25T12:12:05;2.47;;;1.48;;
13785;SDS011;47474;48.824;9.384;2024-03-25T12:14:31;1.45;;;1.23;;
13785;SDS011;47474;48.824;9.384;2024-03-25T12:16:56;2.83;;;1.58;;
13785;SDS011;47474;48.824;9.384;2024-03-25T12:19:23;3.63;;;1.40;;
13785;SDS011;47474;48.824;9.384;2024-03-25T12:21:49;2.17;;;1.27;;
13785;SDS011;47474;48.824;9.384;2024-03-25T12:24:16;2.50;;;1.27;;
13785;SDS011;47474;48.824;9.384;2024-03-25T12:26:42;1.75;;;1.42;;
13785;SDS011;47474;48.824;9.384;2024-03-25T12:29:07;1.58;;;1.38;;
13785;SDS011;47474;48.824;9.384;2024-03-25T12:31:33;2.22;;;1.10;;
13785;SDS011;47474;48.824;9.384;2024-03-25T12:33:58;2.80;;;1.33;;
13785;SDS011;47474;48.824;9.384;2024-03-25T12:36:24;2.05;;;1.52;;
13785;SDS011;47474;48.824;9.384;2024-03-25T12:38:53;1.48;;;1.13;;
13785;SDS011;47474;48.824;9.384;2024-03-25T12:41:21;2.90;;;1.30;;
13785;SDS011;47474;48.824;9.384;2024-03-25T12:43:48;6.05;;;1.50;;
13785;SDS011;47474;48.824;9.384;2024-03-25T12:46:14;2.70;;;1.35;;
13785;SDS011;47474;48.824;9.384;2024-03-25T12:48:40;1.75;;;1.20;;
13785;SDS011;47474;48.824;9.384;2024-03-25T12:51:05;2.08;;;1.17;;
13785;SDS011;47474;48.824;9.384;2024-03-25T12:53:31;2.50;;;1.30;;
13785;SDS011;47474;48.824;9.384;2024-03-25T12:55:56;1.92;;;1.30;;
13785;SDS011;47474;48.824;9.384;2024-03-25T12:58:24;1.83;;;1.67;;
13785;SDS011;47474;48.824;9.384;2024-03-25T13:00:49;1.67;;;1.20;;
13785;SDS011;47474;48.824;9.384;2024-03-25T13:03:15;2.05;;;1.40;;
13785;SDS011;47474;48.824;9.384;2024-03-25T13:05:42;1.65;;;1.40;;
13785;SDS011;47474;48.824;9.384;2024-03-25T13:08:08;3.90;;;1.10;;
13785;SDS011;47474;48.824;9.384;2024-03-25T13:10:34;1.85;;;1.63;;
13785;SDS011;47474;48.824;9.384;2024-03-25T13:13:00;2.70;;;1.60;;
13785;SDS011;47474;48.824;9.384;2024-03-25T13:15:28;4.20;;;1.63;;
13785;SDS011;47474;48.824;9.384;2024-03-25T13:17:53;2.17;;;1.50;;
13785;SDS011;47474;48.824;9.384;2024-03-25T13:20:19;1.90;;;1.33;;
13785;SDS011;47474;48.824;9.384;2024-03-25T13:22:45;1.73;;;1.40;;
13785;SDS011;47474;48.824;9.384;2024-03-25T13:25:11;3.80;;;1.55;;
13785;SDS011;47474;48.824;9.384;2024-03-25T13:27:36;1.83;;;1.40;;
13785;SDS011;47474;48.824;9.384;2024-03-25T13:30:02;1.10;;;1.00;;
13785;SDS011;47474;48.824;9.384;2024-03-25T13:32:29;3.17;;;1.30;;
13785;SDS011;47474;48.824;9.384;2024-03-25T13:34:55;1.80;;;1.30;;
13785;SDS011;47474;48.824;9.384;2024-03-25T13:37:20;2.88;;;1.15;;
13785;SDS011;47474;48.824;9.384;2024-03-25T13:39:46;2.47;;;1.30;;
13785;SDS011;47474;48.824;9.384;2024-03-25T13:42:11;2.40;;;1.45;;
13785;SDS011;47474;48.824;9.384;2024-03-25T13:44:37;2.97;;;1.77;;
13785;SDS011;47474;48.824;9.384;2024-03-25T13:47:03;1.80;;;1.40;;
13785;SDS011;47474;48.824;9.384;2024-03-25T13:49:29;2.55;;;1.27;;
13785;SDS011;47474;48.824;9.384;2024-03-25T13:51:56;1.70;;;1.10;;
13785;SDS011;47474;48.824;9.384;2024-03-25T13:54:21;2.83;;;1.48;;
13785;SDS011;47474;48.824;9.384;2024-03-25T13:56:47;1.10;;;1.00;;
13785;SDS011;47474;48.824;9.384;2024-03-25T13:59:13;2.17;;;1.40;;
13785;SDS011;47474;48.824;9.384;2024-03-25T14:01:38;2.53;;;1.77;;
13785;SDS011;47474;48.824;9.384;2024-03-25T14:04:04;2.08;;;1.40;;
13785;SDS011;47474;48.824;9.384;2024-03-25T14:06:31;1.77;;;1.35;;
13785;SDS011;47474;48.824;9.384;2024-03-25T14:08:56;2.58;;;1.25;;
13785;SDS011;47474;48.824;9.384;2024-03-25T14:11:22;2.03;;;1.73;;
13785;SDS011;47474;48.824;9.384;2024-03-25T14:13:47;1.63;;;1.45;;
13785;SDS011;47474;48.824;9.384;2024-03-25T14:16:13;2.70;;;1.40;;
13785;SDS011;47474;48.824;9.384;2024-03-25T14:18:38;2.25;;;1.23;;
13785;SDS011;47474;48.824;9.384;2024-03-25T14:21:04;2.47;;;1.60;;
13785;SDS011;47474;48.824;9.384;2024-03-25T14:23:31;2.03;;;1.30;;
13785;SDS011;47474;48.824;9.384;2024-03-25T14:25:56;1.58;;;1.20;;
13785;SDS011;47474;48.824;9.384;2024-03-25T14:28:22;2.05;;;1.13;;
13785;SDS011;47474;48.824;9.384;2024-03-25T14:30:47;2.13;;;1.33;;
13785;SDS011;47474;48.824;9.384;2024-03-25T14:33:13;1.85;;;1.20;;
13785;SDS011;47474;48.824;9.384;2024-03-25T14:35:38;2.25;;;1.50;;
13785;SDS011;47474;48.824;9.384;2024-03-25T14:38:04;1.70;;;1.20;;
13785;SDS011;47474;48.824;9.384;2024-03-25T14:40:31;2.45;;;1.80;;
13785;SDS011;47474;48.824;9.384;2024-03-25T14:42:56;2.83;;;1.33;;